createdAt,value
2019-04-26T06:16:12.271Z,9.40
2019-04-26T06:17:10.332Z,9.13
2019-04-26T06:18:26.914Z,8.18
2019-04-26T06:19:29.247Z,8.43
2019-04-26T06:20:39.552Z,9.43
2019-04-26T06:21:33.505Z,7.12
2019-04-26T06:24:20.159Z,8.00
2019-04-26T06:27:56.887Z,8.10
2019-04-26T06:28:56.352Z,9.25
2019-04-26T06:30:29.250Z,8.53
2019-04-26T06:31:13.280Z,8.23
2019-04-26T06:32:18.922Z,8.55
2019-04-26T06:33:28.269Z,16.62
2019-04-26T06:34:17.971Z,9.45
2019-04-26T06:35:11.952Z,9.15
2019-04-26T06:35:48.991Z,8.73
2019-04-26T06:36:28.590Z,9.25
2019-04-26T06:37:17.754Z,8.15
2019-04-26T06:38:28.880Z,10.05
2019-04-26T06:39:33.875Z,7.90
2019-04-26T06:40:24.260Z,8.10
2019-04-26T06:42:00.800Z,8.98
2019-04-26T06:43:02.654Z,10.50
2019-04-26T06:43:46.386Z,8.08
2019-04-26T06:44:31.277Z,7.40
2019-04-26T06:45:35.532Z,7.17
2019-04-26T13:20:11.021Z,3.10
2019-04-26T13:20:47.660Z,2.83
2019-04-26T13:21:33.083Z,2.62
2019-04-26T13:22:12.549Z,2.70
2019-04-26T13:22:50.263Z,3.08
2019-04-26T13:23:30.046Z,2.60
2019-04-26T13:24:43.270Z,2.80
2019-04-26T13:25:26.449Z,2.80
2019-04-26T13:25:59.561Z,2.50
2019-04-26T13:26:38.435Z,2.10
2019-04-26T13:27:53.925Z,2.40
2019-04-26T13:28:30.668Z,2.45
2019-04-26T13:29:07.728Z,2.15
2019-04-26T13:29:44.387Z,3.45
2019-04-26T13:31:02.064Z,2.60
2019-04-26T13:32:27.483Z,2.87
2019-04-26T13:33:58.324Z,3.20
2019-04-26T13:34:44.298Z,2.95
2019-04-26T13:35:35.931Z,2.75
2019-04-26T13:36:15.959Z,2.37
2019-04-26T13:36:52.957Z,2.50
2019-04-26T13:37:32.218Z,3.02
2019-04-26T13:38:10.063Z,2.35
2019-04-26T13:38:47.283Z,2.47
2019-04-26T13:39:24.252Z,2.10
2019-04-26T13:40:00.898Z,2.08
2019-04-26T13:40:41.913Z,2.27
2019-04-26T13:41:19.962Z,2.00
2019-04-26T13:42:04.361Z,2.50
2019-04-26T13:42:39.000Z,2.45
2019-04-26T13:43:16.338Z,2.12
2019-04-26T13:43:52.985Z,1.98
2019-04-26T13:44:46.609Z,2.40
2019-04-26T13:45:40.931Z,8.03
2019-04-26T13:46:35.290Z,4.20
2019-04-26T13:47:23.287Z,3.83
2019-04-26T13:48:19.260Z,3.12
2019-04-26T13:49:00.232Z,3.08
2019-04-26T13:49:38.551Z,3.10
2019-04-26T13:50:29.327Z,3.15
2019-04-26T13:51:10.306Z,3.00
